Time;durP1;ratioP1;P1;durP2;ratioP2;P2;SDS_P1;SDS_P2;PMS_P1;PMS_P2;Temp;Humidity;BMP_temperature;BMP_pressure;BME280_temperature;BME280_humidity;BME280_pressure;Samples;Min_cycle;Max_cycle;Signal;HPM_P1;HPM_P2
2023/09/08 00:02:03;;;;;;;6.30;5.70;;;;;;;;;;4974125;28;20453;-91
2023/09/08 00:04:29;;;;;;;7.07;5.77;;;;;;;;;;4987795;28;20432;-90
2023/09/08 00:06:55;;;;;;;6.60;5.40;;;;;;;;;;4972294;28;20500;-91
2023/09/08 00:09:21;;;;;;;7.27;5.43;;;;;;;;;;4974306;28;20432;-90
2023/09/08 00:11:47;;;;;;;6.50;5.83;;;;;;;;;;4974452;28;20437;-91
2023/09/08 00:14:13;;;;;;;7.30;5.63;;;;;;;;;;4969155;28;20839;-91
2023/09/08 00:16:42;;;;;;;5.93;5.33;;;;;;;;;;4967941;28;20515;-91
2023/09/08 00:19:08;;;;;;;8.27;5.87;;;;;;;;;;4974717;28;20500;-92
2023/09/08 00:21:34;;;;;;;7.50;5.80;;;;;;;;;;4972418;28;20429;-91
2023/09/08 00:24:00;;;;;;;8.13;7.37;;;;;;;;;;4974307;28;20464;-91
2023/09/08 00:26:26;;;;;;;6.20;5.60;;;;;;;;;;4975971;28;20417;-90
2023/09/08 00:28:55;;;;;;;6.07;5.47;;;;;;;;;;4972660;28;20440;-91
2023/09/08 00:31:21;;;;;;;7.80;5.93;;;;;;;;;;4977981;28;20446;-91
2023/09/08 00:33:47;;;;;;;10.00;5.57;;;;;;;;;;4958664;28;20498;-90
2023/09/08 00:36:13;;;;;;;9.03;6.53;;;;;;;;;;4980936;28;20421;-90
2023/09/08 00:38:39;;;;;;;6.33;5.50;;;;;;;;;;4967168;28;20450;-90
2023/09/08 00:41:05;;;;;;;9.30;5.13;;;;;;;;;;4966974;28;20490;-90
2023/09/08 00:43:31;;;;;;;9.30;5.47;;;;;;;;;;4968671;28;20971;-91
2023/09/08 00:45:58;;;;;;;6.63;5.40;;;;;;;;;;4984601;28;20448;-90
2023/09/08 00:48:24;;;;;;;6.83;5.93;;;;;;;;;;4966869;28;20450;-90
2023/09/08 00:50:50;;;;;;;6.20;4.97;;;;;;;;;;4974555;28;20432;-90
2023/09/08 00:53:16;;;;;;;6.17;5.47;;;;;;;;;;4980540;28;20445;-90
2023/09/08 00:55:42;;;;;;;5.93;5.20;;;;;;;;;;4967064;28;21105;-91
2023/09/08 00:58:08;;;;;;;5.90;5.30;;;;;;;;;;4974334;28;20438;-91
2023/09/08 01:00:34;;;;;;;7.57;5.87;;;;;;;;;;4965910;28;20457;-90
2023/09/08 01:03:00;;;;;;;7.30;6.37;;;;;;;;;;4970901;28;20405;-91
2023/09/08 01:05:26;;;;;;;6.07;5.43;;;;;;;;;;4969443;28;20443;-91
2023/09/08 01:07:52;;;;;;;7.10;5.60;;;;;;;;;;4966967;28;20469;-92
2023/09/08 01:10:18;;;;;;;7.70;6.10;;;;;;;;;;4970664;28;20417;-91
2023/09/08 01:12:44;;;;;;;7.70;5.60;;;;;;;;;;4966983;28;20430;-90
2023/09/08 01:15:10;;;;;;;9.57;6.13;;;;;;;;;;4981152;28;20433;-90
2023/09/08 01:17:36;;;;;;;7.70;6.23;;;;;;;;;;4965017;28;20437;-91
2023/09/08 01:20:05;;;;;;;7.17;5.60;;;;;;;;;;4977498;28;20480;-90
2023/09/08 01:22:37;;;;;;;10.63;6.60;;;;;;;;;;4968104;28;20960;-89
2023/09/08 01:25:10;;;;;;;6.23;5.20;;;;;;;;;;4981091;28;20437;-90
2023/09/08 01:27:36;;;;;;;5.87;5.27;;;;;;;;;;4982480;28;20441;-89
2023/09/08 01:30:02;;;;;;;6.53;5.10;;;;;;;;;;4969266;28;21319;-89
2023/09/08 01:32:28;;;;;;;6.67;5.40;;;;;;;;;;4969157;28;20443;-90
2023/09/08 01:34:54;;;;;;;7.10;5.53;;;;;;;;;;4985760;28;20424;-91
2023/09/08 01:37:23;;;;;;;7.57;5.70;;;;;;;;;;4976221;28;20460;-89
2023/09/08 01:39:49;;;;;;;6.53;5.57;;;;;;;;;;4969311;28;20444;-90
2023/09/08 01:42:15;;;;;;;6.13;5.53;;;;;;;;;;4989730;28;20523;-90
2023/09/08 01:44:40;;;;;;;6.93;6.23;;;;;;;;;;4968523;28;20952;-90
2023/09/08 01:47:06;;;;;;;8.17;6.40;;;;;;;;;;4971315;28;20440;-90
2023/09/08 01:49:32;;;;;;;14.07;5.73;;;;;;;;;;4959321;28;21035;-90
2023/09/08 01:51:58;;;;;;;6.90;5.57;;;;;;;;;;4976625;28;20408;-89
2023/09/08 01:54:24;;;;;;;7.40;6.30;;;;;;;;;;4968907;28;20449;-90
2023/09/08 01:56:51;;;;;;;6.87;5.10;;;;;;;;;;4968715;28;20565;-90
2023/09/08 01:59:17;;;;;;;7.60;6.60;;;;;;;;;;4974518;28;21014;-90
2023/09/08 02:01:43;;;;;;;5.77;4.80;;;;;;;;;;4969817;28;20454;-90
2023/09/08 02:04:09;;;;;;;6.77;6.07;;;;;;;;;;4974418;28;20434;-90
2023/09/08 02:06:35;;;;;;;6.10;5.50;;;;;;;;;;4970101;28;20433;-90
2023/09/08 02:09:01;;;;;;;7.17;6.17;;;;;;;;;;4964316;28;20434;-89
2023/09/08 02:11:27;;;;;;;10.97;5.87;;;;;;;;;;4967779;28;20439;-89
2023/09/08 02:13:53;;;;;;;8.40;6.60;;;;;;;;;;4979755;28;20445;-91
2023/09/08 02:16:19;;;;;;;7.93;5.60;;;;;;;;;;4965205;28;20443;-92
2023/09/08 02:18:45;;;;;;;5.47;4.97;;;;;;;;;;4975319;28;20420;-90
2023/09/08 02:21:11;;;;;;;9.40;5.77;;;;;;;;;;4971290;28;20471;-90
2023/09/08 02:23:37;;;;;;;9.00;6.80;;;;;;;;;;4990302;28;20426;-90
2023/09/08 02:26:03;;;;;;;6.47;5.80;;;;;;;;;;4973696;28;20502;-90
2023/09/08 02:28:29;;;;;;;6.40;5.73;;;;;;;;;;4970575;28;20861;-90
2023/09/08 02:30:55;;;;;;;7.30;5.77;;;;;;;;;;4968907;28;20519;-91
2023/09/08 02:33:21;;;;;;;7.70;6.03;;;;;;;;;;4969520;28;20438;-90
2023/09/08 02:35:47;;;;;;;8.43;5.87;;;;;;;;;;4973742;28;20444;-89
2023/09/08 02:38:13;;;;;;;8.23;5.53;;;;;;;;;;4984765;28;20436;-90
2023/09/08 02:40:39;;;;;;;6.17;5.37;;;;;;;;;;4961742;28;20472;-90
2023/09/08 02:43:05;;;;;;;6.33;5.73;;;;;;;;;;4979575;28;20853;-90
2023/09/08 02:45:31;;;;;;;6.47;5.83;;;;;;;;;;4969104;28;20474;-90
2023/09/08 02:47:57;;;;;;;9.27;5.43;;;;;;;;;;4972798;28;20442;-90
2023/09/08 02:50:23;;;;;;;8.07;4.73;;;;;;;;;;4975711;28;20456;-90
2023/09/08 02:52:50;;;;;;;7.60;5.73;;;;;;;;;;4966372;28;20837;-89
2023/09/08 02:55:16;;;;;;;7.53;6.10;;;;;;;;;;4974884;28;20976;-90
2023/09/08 02:57:42;;;;;;;10.63;6.30;;;;;;;;;;4974188;28;20487;-89
2023/09/08 03:00:08;;;;;;;6.17;5.40;;;;;;;;;;4986206;28;20543;-91
2023/09/08 03:02:34;;;;;;;7.10;6.40;;;;;;;;;;4973950;28;20848;-90
2023/09/08 03:05:03;;;;;;;7.40;5.80;;;;;;;;;;4982869;28;20433;-89
2023/09/08 03:07:29;;;;;;;6.03;5.53;;;;;;;;;;4970606;28;20433;-90
2023/09/08 03:09:55;;;;;;;7.97;6.30;;;;;;;;;;4969294;28;20500;-90
2023/09/08 03:12:21;;;;;;;9.23;6.30;;;;;;;;;;4983236;28;20488;-89
2023/09/08 03:14:47;;;;;;;7.47;6.10;;;;;;;;;;4973759;28;20429;-90
2023/09/08 03:17:13;;;;;;;7.17;6.43;;;;;;;;;;4969784;28;20417;-90
2023/09/08 03:19:39;;;;;;;8.37;5.73;;;;;;;;;;4969948;28;20808;-91
2023/09/08 03:22:05;;;;;;;9.30;6.70;;;;;;;;;;4964567;28;20465;-88
2023/09/08 03:24:31;;;;;;;7.70;6.83;;;;;;;;;;4964238;28;20429;-90
2023/09/08 03:26:58;;;;;;;6.57;5.87;;;;;;;;;;4971175;28;20421;-90
2023/09/08 03:29:24;;;;;;;7.10;5.83;;;;;;;;;;4977321;28;20429;-89
2023/09/08 03:31:50;;;;;;;6.90;5.73;;;;;;;;;;4969025;28;20433;-90
2023/09/08 03:34:16;;;;;;;8.03;6.50;;;;;;;;;;4969634;28;20495;-90
2023/09/08 03:36:42;;;;;;;7.03;5.50;;;;;;;;;;4982902;28;20483;-91
2023/09/08 03:39:09;;;;;;;6.33;5.70;;;;;;;;;;4960052;28;20470;-90
2023/09/08 03:41:35;;;;;;;8.63;6.23;;;;;;;;;;4965866;28;20491;-91
2023/09/08 03:44:01;;;;;;;8.20;6.40;;;;;;;;;;4971029;28;20429;-90
2023/09/08 03:46:28;;;;;;;7.47;6.53;;;;;;;;;;4985705;28;20493;-90
2023/09/08 03:48:58;;;;;;;9.87;6.20;;;;;;;;;;4969721;28;20409;-90
2023/09/08 03:51:24;;;;;;;7.20;5.70;;;;;;;;;;4977287;28;20426;-90
2023/09/08 03:53:50;;;;;;;6.17;5.00;;;;;;;;;;4984332;28;20414;-90
2023/09/08 03:56:16;;;;;;;8.23;6.50;;;;;;;;;;4967959;28;20867;-91
2023/09/08 03:58:42;;;;;;;6.87;5.80;;;;;;;;;;4984555;28;20487;-90
2023/09/08 04:01:08;;;;;;;7.80;5.97;;;;;;;;;;4977303;28;20514;-91
2023/09/08 04:03:35;;;;;;;6.43;5.57;;;;;;;;;;4948855;28;20434;-89
2023/09/08 04:06:09;;;;;;;7.40;6.70;;;;;;;;;;4997649;28;20419;-92
2023/09/08 04:08:35;;;;;;;6.80;6.20;;;;;;;;;;4964145;28;20532;-89
2023/09/08 04:11:01;;;;;;;6.33;5.70;;;;;;;;;;4923980;29;20532;-89
2023/09/08 04:13:27;;;;;;;8.00;6.00;;;;;;;;;;4885748;29;20465;-90
2023/09/08 04:15:53;;;;;;;7.73;5.83;;;;;;;;;;4893626;29;20519;-90
2023/09/08 04:18:19;;;;;;;7.20;5.83;;;;;;;;;;4890261;29;20840;-90
2023/09/08 04:20:45;;;;;;;8.00;5.20;;;;;;;;;;4893629;29;20483;-89
2023/09/08 04:23:11;;;;;;;7.03;5.40;;;;;;;;;;4890364;29;20440;-90
2023/09/08 04:25:37;;;;;;;7.83;6.33;;;;;;;;;;4893830;29;20907;-91
2023/09/08 04:28:03;;;;;;;6.70;5.90;;;;;;;;;;4898893;29;20447;-90
2023/09/08 04:30:29;;;;;;;10.73;6.13;;;;;;;;;;4892058;29;20449;-89
2023/09/08 04:32:55;;;;;;;6.50;5.90;;;;;;;;;;4892261;29;20472;-90
2023/09/08 04:35:22;;;;;;;6.43;5.70;;;;;;;;;;4897476;29;20472;-89
2023/09/08 04:37:48;;;;;;;9.10;6.93;;;;;;;;;;4884541;29;20440;-90
2023/09/08 04:40:14;;;;;;;7.43;6.30;;;;;;;;;;4887128;29;20496;-92
2023/09/08 04:42:40;;;;;;;6.80;6.00;;;;;;;;;;4965530;28;20506;-90
2023/09/08 04:45:07;;;;;;;8.37;6.50;;;;;;;;;;4969554;28;20577;-90
2023/09/08 04:47:33;;;;;;;7.60;5.83;;;;;;;;;;4965681;28;20491;-90
2023/09/08 04:50:00;;;;;;;7.60;5.80;;;;;;;;;;4958477;28;20477;-89
2023/09/08 04:52:26;;;;;;;6.60;6.00;;;;;;;;;;4964413;28;20450;-92
2023/09/08 04:54:55;;;;;;;6.47;5.87;;;;;;;;;;4961985;28;20452;-90
2023/09/08 04:57:21;;;;;;;6.97;5.83;;;;;;;;;;4962758;28;20499;-90
2023/09/08 04:59:47;;;;;;;7.47;5.60;;;;;;;;;;4966334;28;20473;-91
2023/09/08 05:02:13;;;;;;;8.70;6.20;;;;;;;;;;4968056;28;20444;-89
2023/09/08 05:04:44;;;;;;;9.63;6.30;;;;;;;;;;4989393;28;20440;-92
2023/09/08 05:07:13;;;;;;;6.27;5.67;;;;;;;;;;4992274;28;20434;-92
2023/09/08 05:09:39;;;;;;;10.10;6.30;;;;;;;;;;4976555;28;20460;-93
2023/09/08 05:12:05;;;;;;;8.47;7.70;;;;;;;;;;4973333;28;20430;-93
2023/09/08 05:14:32;;;;;;;7.33;6.60;;;;;;;;;;4985382;28;20454;-92
2023/09/08 05:16:58;;;;;;;9.80;7.10;;;;;;;;;;4928070;29;20518;-93
2023/09/08 05:19:24;;;;;;;8.00;6.83;;;;;;;;;;4883299;29;20965;-94
2023/09/08 05:21:50;;;;;;;9.00;6.33;;;;;;;;;;4873816;29;20552;-94
2023/09/08 05:24:18;;;;;;;6.80;5.90;;;;;;;;;;4866992;29;20443;-92
2023/09/08 05:26:44;;;;;;;6.73;5.50;;;;;;;;;;4838323;29;20449;-92
2023/09/08 05:29:11;;;;;;;9.40;7.13;;;;;;;;;;4821736;29;20452;-92
2023/09/08 05:31:37;;;;;;;8.27;6.90;;;;;;;;;;4819293;29;20521;-92
2023/09/08 05:34:10;;;;;;;11.70;8.00;;;;;;;;;;4838179;29;20974;-92
2023/09/08 05:36:38;;;;;;;14.00;6.90;;;;;;;;;;4832201;29;20861;-92
2023/09/08 05:39:19;;;;;;;11.33;6.60;;;;;;;;;;4847851;29;20431;-92
2023/09/08 05:42:03;;;;;;;9.77;6.90;;;;;;;;;;4784597;30;20488;-91
2023/09/08 05:44:30;;;;;;;7.20;6.50;;;;;;;;;;4768931;30;20451;-89
2023/09/08 05:46:58;;;;;;;9.50;7.10;;;;;;;;;;4783012;29;20467;-93
2023/09/08 05:49:24;;;;;;;17.50;7.20;;;;;;;;;;4817152;29;20531;-93
2023/09/08 05:52:10;;;;;;;9.57;7.00;;;;;;;;;;4857044;29;20452;-94
2023/09/08 05:54:36;;;;;;;12.47;7.60;;;;;;;;;;4845680;29;21035;-93
2023/09/08 05:57:03;;;;;;;11.30;7.77;;;;;;;;;;4841922;29;20482;-94
2023/09/08 05:59:29;;;;;;;8.53;7.60;;;;;;;;;;4840858;29;20489;-94
2023/09/08 06:02:07;;;;;;;9.33;7.03;;;;;;;;;;4843468;29;20859;-92
2023/09/08 06:04:33;;;;;;;10.43;6.20;;;;;;;;;;4840543;29;20450;-94
2023/09/08 06:07:00;;;;;;;9.43;6.60;;;;;;;;;;4844232;29;20431;-93
2023/09/08 06:09:26;;;;;;;7.63;6.70;;;;;;;;;;4839863;29;20443;-93
2023/09/08 06:12:12;;;;;;;7.07;6.37;;;;;;;;;;4862954;28;20428;-91
2023/09/08 06:14:38;;;;;;;9.60;7.13;;;;;;;;;;4929084;29;20439;-91
2023/09/08 06:17:05;;;;;;;14.07;7.77;;;;;;;;;;4958622;28;20410;-93
2023/09/08 06:19:31;;;;;;;9.93;7.40;;;;;;;;;;4976382;28;20465;-93
2023/09/08 06:21:57;;;;;;;12.00;7.63;;;;;;;;;;4969928;28;20425;-94
2023/09/08 06:24:24;;;;;;;10.37;7.67;;;;;;;;;;4969671;28;20948;-93
2023/09/08 06:26:50;;;;;;;8.90;7.83;;;;;;;;;;4972662;28;20437;-94
2023/09/08 06:29:19;;;;;;;9.70;8.03;;;;;;;;;;4988441;28;20440;-93
2023/09/08 06:31:45;;;;;;;8.70;7.30;;;;;;;;;;4973841;28;20417;-93
2023/09/08 06:34:11;;;;;;;10.63;8.07;;;;;;;;;;4975577;28;20521;-92
2023/09/08 06:36:37;;;;;;;8.90;7.40;;;;;;;;;;4976507;28;20433;-92
2023/09/08 06:39:04;;;;;;;7.87;7.03;;;;;;;;;;4975255;28;20445;-93
2023/09/08 06:41:30;;;;;;;8.47;7.20;;;;;;;;;;4970213;28;20983;-93
2023/09/08 06:43:56;;;;;;;11.80;7.80;;;;;;;;;;4943205;28;20451;-92
2023/09/08 06:46:26;;;;;;;11.60;7.13;;;;;;;;;;4928943;29;20447;-92
2023/09/08 06:48:52;;;;;;;12.13;8.03;;;;;;;;;;4953140;29;20453;-92
2023/09/08 06:51:19;;;;;;;7.27;6.57;;;;;;;;;;4932266;28;20428;-92
2023/09/08 06:53:48;;;;;;;8.80;7.90;;;;;;;;;;4942214;29;20442;-92
2023/09/08 06:56:14;;;;;;;8.90;6.97;;;;;;;;;;4929830;28;20411;-92
2023/09/08 06:58:40;;;;;;;11.20;8.43;;;;;;;;;;4928707;28;20505;-92
2023/09/08 07:01:06;;;;;;;9.60;7.10;;;;;;;;;;4940528;29;20529;-92
2023/09/08 07:03:36;;;;;;;10.03;7.10;;;;;;;;;;4941525;28;20454;-92
2023/09/08 07:06:02;;;;;;;9.93;7.77;;;;;;;;;;4933284;29;20435;-92
2023/09/08 07:08:28;;;;;;;8.93;8.03;;;;;;;;;;4949835;28;20466;-92
2023/09/08 07:10:55;;;;;;;13.23;8.00;;;;;;;;;;4931675;28;20442;-90
2023/09/08 07:13:21;;;;;;;9.10;7.40;;;;;;;;;;4939672;29;20475;-91
2023/09/08 07:15:47;;;;;;;8.60;7.30;;;;;;;;;;4949892;28;20418;-91
2023/09/08 07:18:13;;;;;;;11.80;8.73;;;;;;;;;;4956205;28;20437;-91
2023/09/08 07:20:39;;;;;;;12.20;7.17;;;;;;;;;;4953823;28;20484;-90
2023/09/08 07:23:06;;;;;;;11.63;8.70;;;;;;;;;;4957809;28;20438;-89
2023/09/08 07:25:32;;;;;;;8.90;7.70;;;;;;;;;;4986648;28;20489;-91
2023/09/08 07:27:58;;;;;;;10.77;9.60;;;;;;;;;;4969742;28;20484;-91
2023/09/08 07:30:25;;;;;;;11.77;9.53;;;;;;;;;;4977462;28;20524;-92
2023/09/08 07:32:51;;;;;;;11.47;8.83;;;;;;;;;;4970533;28;20443;-88
2023/09/08 07:35:19;;;;;;;13.20;8.37;;;;;;;;;;4967293;28;20442;-90
2023/09/08 07:37:45;;;;;;;10.30;9.30;;;;;;;;;;4964793;28;20437;-90
2023/09/08 07:40:11;;;;;;;9.53;8.30;;;;;;;;;;4965298;28;20461;-91
2023/09/08 07:42:38;;;;;;;10.53;9.43;;;;;;;;;;4971778;28;20527;-91
2023/09/08 07:45:05;;;;;;;12.03;9.33;;;;;;;;;;4983659;28;20497;-91
2023/09/08 07:47:31;;;;;;;12.13;8.87;;;;;;;;;;5007444;28;20394;-91
2023/09/08 07:50:16;;;;;;;10.07;8.97;;;;;;;;;;4997564;28;20456;-90
2023/09/08 07:52:42;;;;;;;12.80;8.33;;;;;;;;;;4988073;28;20434;-92
2023/09/08 07:55:08;;;;;;;9.87;8.33;;;;;;;;;;4975542;28;20433;-91
2023/09/08 07:57:34;;;;;;;10.50;8.23;;;;;;;;;;4975673;28;20421;-89
2023/09/08 08:00:00;;;;;;;10.67;9.13;;;;;;;;;;4980490;28;20520;-90
2023/09/08 08:02:26;;;;;;;9.17;8.23;;;;;;;;;;4970117;28;20445;-90
2023/09/08 08:04:52;;;;;;;13.40;9.23;;;;;;;;;;4984468;28;20479;-91
2023/09/08 08:07:18;;;;;;;9.60;8.60;;;;;;;;;;4972579;28;20437;-89
2023/09/08 08:09:44;;;;;;;8.97;7.37;;;;;;;;;;4967767;28;20429;-89
2023/09/08 08:12:10;;;;;;;10.60;7.83;;;;;;;;;;4988018;28;20425;-90
2023/09/08 08:14:36;;;;;;;10.30;8.40;;;;;;;;;;4978499;28;20725;-91
2023/09/08 08:17:02;;;;;;;9.33;8.43;;;;;;;;;;4963410;28;20456;-89
2023/09/08 08:19:28;;;;;;;11.07;8.43;;;;;;;;;;4966887;28;20541;-89
2023/09/08 08:21:56;;;;;;;8.30;7.50;;;;;;;;;;4974321;28;20417;-89
2023/09/08 08:24:22;;;;;;;10.27;8.93;;;;;;;;;;4985411;28;20441;-89
2023/09/08 08:26:51;;;;;;;11.73;9.27;;;;;;;;;;4968379;28;20461;-89
2023/09/08 08:29:17;;;;;;;12.43;8.73;;;;;;;;;;4944312;29;20443;-90
2023/09/08 08:31:43;;;;;;;10.10;8.47;;;;;;;;;;4949184;29;20426;-89
2023/09/08 08:34:09;;;;;;;8.53;7.17;;;;;;;;;;4945731;28;20427;-89
2023/09/08 08:36:35;;;;;;;8.90;7.80;;;;;;;;;;4939831;29;20442;-88
2023/09/08 08:39:02;;;;;;;12.90;9.60;;;;;;;;;;4943562;28;20439;-89
2023/09/08 08:41:29;;;;;;;9.70;7.57;;;;;;;;;;4940643;29;20489;-90
2023/09/08 08:43:55;;;;;;;10.27;8.37;;;;;;;;;;4928893;29;20461;-89
2023/09/08 08:46:22;;;;;;;8.73;7.83;;;;;;;;;;4934958;29;20443;-88
2023/09/08 08:48:48;;;;;;;8.53;7.73;;;;;;;;;;4929085;29;20528;-89
2023/09/08 08:51:15;;;;;;;9.70;8.40;;;;;;;;;;4922218;29;20471;-89
2023/09/08 08:53:41;;;;;;;8.57;7.77;;;;;;;;;;4948279;29;20428;-88
2023/09/08 08:56:09;;;;;;;10.03;7.93;;;;;;;;;;4943836;28;20483;-88
2023/09/08 08:58:36;;;;;;;10.10;8.00;;;;;;;;;;4924359;29;20435;-89
2023/09/08 09:01:02;;;;;;;9.23;7.40;;;;;;;;;;4944278;29;20459;-89
2023/09/08 09:03:28;;;;;;;11.87;7.43;;;;;;;;;;4941525;29;20444;-89
2023/09/08 09:05:54;;;;;;;8.33;7.17;;;;;;;;;;4946689;29;20516;-89
2023/09/08 09:08:20;;;;;;;8.57;7.70;;;;;;;;;;4922559;29;20442;-89
2023/09/08 09:10:46;;;;;;;8.93;7.47;;;;;;;;;;4944264;29;20533;-88
2023/09/08 09:13:12;;;;;;;8.50;7.70;;;;;;;;;;4942247;29;20810;-89
2023/09/08 09:15:38;;;;;;;13.10;8.50;;;;;;;;;;4946790;29;20509;-89
2023/09/08 09:18:07;;;;;;;8.43;7.70;;;;;;;;;;4944452;29;21042;-89
2023/09/08 09:20:33;;;;;;;8.87;8.03;;;;;;;;;;4962739;28;20836;-89
2023/09/08 09:22:59;;;;;;;8.77;7.87;;;;;;;;;;4962118;28;20520;-89
2023/09/08 09:25:27;;;;;;;10.80;8.47;;;;;;;;;;4974877;28;20444;-89
2023/09/08 09:27:56;;;;;;;8.77;7.90;;;;;;;;;;4968111;28;20426;-89
2023/09/08 09:30:22;;;;;;;9.53;8.00;;;;;;;;;;4983460;28;20452;-89
2023/09/08 09:32:49;;;;;;;9.83;8.83;;;;;;;;;;4964494;28;20453;-89
2023/09/08 09:35:16;;;;;;;10.17;8.50;;;;;;;;;;4961785;28;20433;-89
2023/09/08 09:37:42;;;;;;;12.70;8.10;;;;;;;;;;4962622;28;20417;-89
2023/09/08 09:40:10;;;;;;;10.93;9.60;;;;;;;;;;4961129;28;20471;-90
2023/09/08 09:42:38;;;;;;;8.93;8.10;;;;;;;;;;4966744;28;20532;-89
2023/09/08 09:45:04;;;;;;;9.70;8.70;;;;;;;;;;4967681;28;20468;-89
2023/09/08 09:47:30;;;;;;;10.53;8.97;;;;;;;;;;4984402;28;20500;-89
2023/09/08 09:49:58;;;;;;;11.67;8.20;;;;;;;;;;4964373;28;20418;-89
2023/09/08 09:52:25;;;;;;;8.73;7.73;;;;;;;;;;4963880;28;20448;-89
2023/09/08 09:54:53;;;;;;;7.43;6.70;;;;;;;;;;4957671;28;20429;-89
2023/09/08 09:57:19;;;;;;;11.03;9.73;;;;;;;;;;4984850;28;20483;-88
2023/09/08 09:59:45;;;;;;;10.40;7.43;;;;;;;;;;4971749;28;20452;-89
2023/09/08 10:02:12;;;;;;;8.10;7.43;;;;;;;;;;4970408;28;20445;-89
2023/09/08 10:04:40;;;;;;;7.93;7.23;;;;;;;;;;4969612;28;20509;-88
2023/09/08 10:07:07;;;;;;;10.60;9.50;;;;;;;;;;4969873;28;20632;-88
2023/09/08 10:09:33;;;;;;;11.33;8.23;;;;;;;;;;4988113;28;20429;-88
2023/09/08 10:12:00;;;;;;;8.90;8.00;;;;;;;;;;4969668;28;20464;-88
2023/09/08 10:14:26;;;;;;;9.70;7.90;;;;;;;;;;4969122;28;20512;-88
2023/09/08 10:16:52;;;;;;;9.40;8.60;;;;;;;;;;4968061;28;20402;-88
2023/09/08 10:19:19;;;;;;;11.47;8.33;;;;;;;;;;4970765;28;20430;-88
2023/09/08 10:21:47;;;;;;;9.43;8.53;;;;;;;;;;4906101;29;20607;-88
2023/09/08 10:24:22;;;;;;;8.60;7.77;;;;;;;;;;4891737;29;20445;-88
2023/09/08 10:26:51;;;;;;;10.00;8.70;;;;;;;;;;4865834;29;20623;-89
2023/09/08 10:29:20;;;;;;;8.90;7.53;;;;;;;;;;4880325;29;20442;-88
2023/09/08 10:31:46;;;;;;;12.43;8.77;;;;;;;;;;4906355;29;20453;-88
2023/09/08 10:34:15;;;;;;;11.47;8.30;;;;;;;;;;4893934;29;20460;-87
2023/09/08 10:36:44;;;;;;;9.23;8.33;;;;;;;;;;4885802;29;20473;-86
2023/09/08 10:39:31;;;;;;;9.90;8.30;;;;;;;;;;4856210;29;20451;-88
2023/09/08 10:42:30;;;;;;;9.07;7.90;;;;;;;;;;4875116;29;20517;-89
2023/09/08 10:44:56;;;;;;;8.33;7.53;;;;;;;;;;4834854;29;20415;-89
2023/09/08 10:47:23;;;;;;;8.20;7.40;;;;;;;;;;4873530;29;20943;-90
2023/09/08 10:49:50;;;;;;;10.83;8.07;;;;;;;;;;4863052;29;20487;-91
2023/09/08 10:52:16;;;;;;;9.10;8.17;;;;;;;;;;4872288;29;20438;-91
2023/09/08 10:54:46;;;;;;;9.80;7.93;;;;;;;;;;4902896;29;20462;-89
2023/09/08 10:57:15;;;;;;;9.80;8.60;;;;;;;;;;4900549;29;20512;-90
2023/09/08 11:00:00;;;;;;;11.33;9.30;;;;;;;;;;4908590;29;20472;-90
2023/09/08 11:02:50;;;;;;;9.50;7.83;;;;;;;;;;4928140;29;20437;-90
2023/09/08 11:05:18;;;;;;;8.47;7.67;;;;;;;;;;4934891;28;20419;-91
2023/09/08 11:07:44;;;;;;;8.83;8.03;;;;;;;;;;4947267;28;20449;-90
2023/09/08 11:10:10;;;;;;;10.67;7.40;;;;;;;;;;4973428;28;20429;-90
2023/09/08 11:12:37;;;;;;;8.77;7.97;;;;;;;;;;4986444;28;20421;-88
2023/09/08 11:15:05;;;;;;;8.17;7.47;;;;;;;;;;4971379;28;20881;-89
2023/09/08 11:17:41;;;;;;;8.80;8.00;;;;;;;;;;5014722;28;20425;-95
2023/09/08 11:20:16;;;;;;;8.13;7.33;;;;;;;;;;4999209;28;20487;-90
2023/09/08 11:22:42;;;;;;;13.27;8.47;;;;;;;;;;4964484;28;20464;-90
2023/09/08 11:25:10;;;;;;;11.90;7.63;;;;;;;;;;4970076;28;20449;-90
2023/09/08 11:27:36;;;;;;;9.03;7.53;;;;;;;;;;4970010;28;20463;-90
2023/09/08 11:30:04;;;;;;;14.70;8.50;;;;;;;;;;4970207;28;20441;-91
2023/09/08 11:32:34;;;;;;;8.30;7.60;;;;;;;;;;4967868;28;20523;-89
2023/09/08 11:35:38;;;;;;;8.20;7.40;;;;;;;;;;4985227;28;20449;-90
2023/09/08 11:38:04;;;;;;;12.07;8.30;;;;;;;;;;4981081;28;20452;-90
2023/09/08 11:40:31;;;;;;;8.13;7.33;;;;;;;;;;4929202;29;20555;-91
2023/09/08 11:42:57;;;;;;;8.73;7.90;;;;;;;;;;4909936;29;20451;-90
2023/09/08 11:45:23;;;;;;;9.00;8.20;;;;;;;;;;4573129;29;9861417;-89
2023/09/08 11:47:49;;;;;;;8.47;7.50;;;;;;;;;;4910816;29;20179;-89
2023/09/08 11:50:17;;;;;;;8.20;6.90;;;;;;;;;;4930519;29;20543;-90
2023/09/08 11:52:46;;;;;;;7.90;7.20;;;;;;;;;;4929001;29;20453;-89
2023/09/08 11:55:13;;;;;;;7.80;7.00;;;;;;;;;;4931063;28;20447;-90
2023/09/08 11:57:39;;;;;;;8.27;7.57;;;;;;;;;;4950667;29;20528;-90
2023/09/08 12:00:05;;;;;;;8.67;7.97;;;;;;;;;;4921985;29;21237;-90
2023/09/08 12:02:35;;;;;;;9.03;8.13;;;;;;;;;;4919249;28;20434;-90
2023/09/08 12:05:34;;;;;;;7.97;7.23;;;;;;;;;;4929803;29;20569;-91
2023/09/08 12:08:00;;;;;;;9.20;8.30;;;;;;;;;;4950099;28;20438;-93
2023/09/08 12:10:26;;;;;;;8.77;7.87;;;;;;;;;;4930850;28;20440;-89
2023/09/08 12:12:54;;;;;;;9.20;8.17;;;;;;;;;;4964880;28;20520;-90
2023/09/08 12:15:33;;;;;;;8.57;7.47;;;;;;;;;;4969146;28;20460;-90
2023/09/08 12:17:59;;;;;;;8.40;7.27;;;;;;;;;;4981517;28;21100;-88
2023/09/08 12:20:27;;;;;;;8.60;7.80;;;;;;;;;;4965028;28;20505;-90
2023/09/08 12:22:53;;;;;;;9.00;8.10;;;;;;;;;;4966873;28;20464;-91
2023/09/08 12:25:20;;;;;;;8.50;7.67;;;;;;;;;;4965224;28;20438;-90
2023/09/08 12:27:47;;;;;;;7.87;7.17;;;;;;;;;;4963109;28;21065;-91
2023/09/08 12:30:21;;;;;;;8.53;6.60;;;;;;;;;;4965567;28;20421;-91
2023/09/08 12:32:48;;;;;;;9.07;8.27;;;;;;;;;;4983250;28;20436;-90
2023/09/08 12:35:14;;;;;;;8.37;7.67;;;;;;;;;;4962941;28;20506;-91
2023/09/08 12:37:41;;;;;;;9.77;7.63;;;;;;;;;;4966250;28;20491;-91
2023/09/08 18:12:40;;;;;;;8.40;7.50;;;;;;;;;;4999878;28;20451;-92
2023/09/08 18:15:07;;;;;;;7.53;6.77;;;;;;;;;;4956314;28;20772;-91
2023/09/08 18:17:33;;;;;;;8.63;7.63;;;;;;;;;;5003808;28;20618;-92
2023/09/08 18:20:00;;;;;;;11.33;7.50;;;;;;;;;;4984379;28;20465;-92
2023/09/08 18:22:26;;;;;;;9.73;7.00;;;;;;;;;;4953960;28;20445;-91
2023/09/08 18:24:52;;;;;;;9.17;8.27;;;;;;;;;;4952132;28;20464;-92
2023/09/08 18:27:18;;;;;;;9.23;7.70;;;;;;;;;;4952013;28;20465;-94
2023/09/08 18:29:44;;;;;;;8.80;7.90;;;;;;;;;;4972799;28;20444;-92
2023/09/08 18:32:11;;;;;;;9.37;8.40;;;;;;;;;;4988465;28;20444;-92
